sensor_id;sensor_type;location;lat;lon;timestamp;temperature;humidity
71754;DHT22;59593;51.716;7.016;2024-03-06T00:00:47;7.00;99.90
71754;DHT22;59593;51.716;7.016;2024-03-06T00:03:13;7.10;99.90
71754;DHT22;59593;51.716;7.016;2024-03-06T00:05:38;7.00;99.90
71754;DHT22;59593;51.716;7.016;2024-03-06T00:08:04;7.10;99.90
71754;DHT22;59593;51.716;7.016;2024-03-06T00:10:30;7.10;99.90
71754;DHT22;59593;51.716;7.016;2024-03-06T00:12:55;7.10;99.90
71754;DHT22;59593;51.716;7.016;2024-03-06T00:15:21;7.10;99.90
71754;DHT22;59593;51.716;7.016;2024-03-06T00:17:47;7.10;99.90
71754;DHT22;59593;51.716;7.016;2024-03-06T00:20:12;7.10;99.90
71754;DHT22;59593;51.716;7.016;2024-03-06T00:22:39;7.10;99.90
71754;DHT22;59593;51.716;7.016;2024-03-06T00:25:05;7.10;99.90
71754;DHT22;59593;51.716;7.016;2024-03-06T00:27:31;7.10;99.90
71754;DHT22;59593;51.716;7.016;2024-03-06T00:29:57;7.10;99.90
71754;DHT22;59593;51.716;7.016;2024-03-06T00:32:23;7.10;99.90
71754;DHT22;59593;51.716;7.016;2024-03-06T00:34:49;7.10;99.90
71754;DHT22;59593;51.716;7.016;2024-03-06T00:37:14;7.10;99.90
71754;DHT22;59593;51.716;7.016;2024-03-06T00:39:40;7.20;99.90
71754;DHT22;59593;51.716;7.016;2024-03-06T00:42:05;7.20;99.90
71754;DHT22;59593;51.716;7.016;2024-03-06T00:44:31;7.20;99.90
71754;DHT22;59593;51.716;7.016;2024-03-06T00:46:57;7.20;99.90
71754;DHT22;59593;51.716;7.016;2024-03-06T00:49:22;7.20;99.90
71754;DHT22;59593;51.716;7.016;2024-03-06T00:51:48;7.20;99.90
71754;DHT22;59593;51.716;7.016;2024-03-06T00:54:13;7.20;99.90
71754;DHT22;59593;51.716;7.016;2024-03-06T00:56:39;7.20;99.90
71754;DHT22;59593;51.716;7.016;2024-03-06T00:59:05;7.20;99.90
71754;DHT22;59593;51.716;7.016;2024-03-06T01:01:30;7.20;99.90
71754;DHT22;59593;51.716;7.016;2024-03-06T01:03:56;7.10;99.90
71754;DHT22;59593;51.716;7.016;2024-03-06T01:06:21;7.10;99.90
71754;DHT22;59593;51.716;7.016;2024-03-06T01:08:47;7.10;99.90
71754;DHT22;59593;51.716;7.016;2024-03-06T01:11:12;7.10;99.90
71754;DHT22;59593;51.716;7.016;2024-03-06T01:13:40;7.10;99.90
71754;DHT22;59593;51.716;7.016;2024-03-06T01:16:06;7.10;99.90
71754;DHT22;59593;51.716;7.016;2024-03-06T01:18:32;7.10;99.90
71754;DHT22;59593;51.716;7.016;2024-03-06T01:20:58;7.00;99.90
71754;DHT22;59593;51.716;7.016;2024-03-06T01:23:23;7.00;99.90
71754;DHT22;59593;51.716;7.016;2024-03-06T01:25:49;7.00;99.90
71754;DHT22;59593;51.716;7.016;2024-03-06T01:28:14;7.00;99.90
71754;DHT22;59593;51.716;7.016;2024-03-06T01:30:40;7.00;99.90
71754;DHT22;59593;51.716;7.016;2024-03-06T01:33:05;6.90;99.90
71754;DHT22;59593;51.716;7.016;2024-03-06T01:35:31;6.90;99.90
71754;DHT22;59593;51.716;7.016;2024-03-06T01:37:57;6.90;99.90
71754;DHT22;59593;51.716;7.016;2024-03-06T01:40:23;6.90;99.90
71754;DHT22;59593;51.716;7.016;2024-03-06T01:42:49;6.90;99.90
71754;DHT22;59593;51.716;7.016;2024-03-06T01:45:15;6.90;99.90
71754;DHT22;59593;51.716;7.016;2024-03-06T01:47:41;6.90;99.90
71754;DHT22;59593;51.716;7.016;2024-03-06T01:50:07;6.80;99.90
71754;DHT22;59593;51.716;7.016;2024-03-06T01:52:35;6.80;99.90
71754;DHT22;59593;51.716;7.016;2024-03-06T01:55:02;6.80;99.90
71754;DHT22;59593;51.716;7.016;2024-03-06T01:57:28;6.80;99.90
71754;DHT22;59593;51.716;7.016;2024-03-06T01:59:54;6.80;99.90
71754;DHT22;59593;51.716;7.016;2024-03-06T02:02:20;6.80;99.90
71754;DHT22;59593;51.716;7.016;2024-03-06T02:04:46;6.80;99.90
71754;DHT22;59593;51.716;7.016;2024-03-06T02:07:13;6.80;99.90
71754;DHT22;59593;51.716;7.016;2024-03-06T02:09:39;6.80;99.90
71754;DHT22;59593;51.716;7.016;2024-03-06T02:12:06;6.80;99.90
71754;DHT22;59593;51.716;7.016;2024-03-06T02:14:34;6.70;99.90
71754;DHT22;59593;51.716;7.016;2024-03-06T02:17:00;6.60;99.90
71754;DHT22;59593;51.716;7.016;2024-03-06T02:19:37;6.60;99.90
71754;DHT22;59593;51.716;7.016;2024-03-06T02:22:03;6.60;99.90
71754;DHT22;59593;51.716;7.016;2024-03-06T02:24:29;6.60;99.90
71754;DHT22;59593;51.716;7.016;2024-03-06T02:26:56;6.50;99.90
71754;DHT22;59593;51.716;7.016;2024-03-06T02:29:23;6.40;99.90
71754;DHT22;59593;51.716;7.016;2024-03-06T02:31:49;6.40;99.90
71754;DHT22;59593;51.716;7.016;2024-03-06T02:34:14;6.40;99.90
71754;DHT22;59593;51.716;7.016;2024-03-06T02:36:40;6.30;99.90
71754;DHT22;59593;51.716;7.016;2024-03-06T02:39:06;6.30;99.90
71754;DHT22;59593;51.716;7.016;2024-03-06T02:41:35;6.30;99.90
71754;DHT22;59593;51.716;7.016;2024-03-06T02:44:01;6.20;99.90
71754;DHT22;59593;51.716;7.016;2024-03-06T02:46:27;6.20;99.90
71754;DHT22;59593;51.716;7.016;2024-03-06T02:48:52;6.10;99.90
71754;DHT22;59593;51.716;7.016;2024-03-06T02:51:19;6.10;99.90
71754;DHT22;59593;51.716;7.016;2024-03-06T02:53:45;6.10;99.90
71754;DHT22;59593;51.716;7.016;2024-03-06T02:56:16;6.10;99.90
71754;DHT22;59593;51.716;7.016;2024-03-06T02:58:42;6.10;99.90
71754;DHT22;59593;51.716;7.016;2024-03-06T03:01:07;6.00;99.90
71754;DHT22;59593;51.716;7.016;2024-03-06T03:03:34;6.00;99.90
71754;DHT22;59593;51.716;7.016;2024-03-06T03:06:00;5.90;99.90
71754;DHT22;59593;51.716;7.016;2024-03-06T03:08:26;5.90;99.90
71754;DHT22;59593;51.716;7.016;2024-03-06T03:10:51;5.80;99.90
71754;DHT22;59593;51.716;7.016;2024-03-06T03:13:17;5.80;99.90
71754;DHT22;59593;51.716;7.016;2024-03-06T03:15:43;5.70;99.90
71754;DHT22;59593;51.716;7.016;2024-03-06T03:18:08;5.60;99.90
71754;DHT22;59593;51.716;7.016;2024-03-06T03:20:34;5.50;99.90
71754;DHT22;59593;51.716;7.016;2024-03-06T03:23:01;5.40;99.90
71754;DHT22;59593;51.716;7.016;2024-03-06T03:25:27;5.40;99.90
71754;DHT22;59593;51.716;7.016;2024-03-06T03:27:52;5.40;99.90
71754;DHT22;59593;51.716;7.016;2024-03-06T03:30:18;5.50;99.90
71754;DHT22;59593;51.716;7.016;2024-03-06T03:32:47;5.50;99.90
71754;DHT22;59593;51.716;7.016;2024-03-06T03:35:14;5.40;99.90
71754;DHT22;59593;51.716;7.016;2024-03-06T03:37:39;5.40;99.90
71754;DHT22;59593;51.716;7.016;2024-03-06T03:40:06;5.50;99.90
71754;DHT22;59593;51.716;7.016;2024-03-06T03:42:32;5.40;99.90
71754;DHT22;59593;51.716;7.016;2024-03-06T03:44:58;5.40;99.90
71754;DHT22;59593;51.716;7.016;2024-03-06T03:47:23;5.30;99.90
71754;DHT22;59593;51.716;7.016;2024-03-06T03:49:49;5.40;99.90
71754;DHT22;59593;51.716;7.016;2024-03-06T03:52:15;5.30;99.90
71754;DHT22;59593;51.716;7.016;2024-03-06T03:54:41;5.20;99.90
71754;DHT22;59593;51.716;7.016;2024-03-06T03:57:06;5.20;99.90
71754;DHT22;59593;51.716;7.016;2024-03-06T03:59:33;5.20;99.90
71754;DHT22;59593;51.716;7.016;2024-03-06T04:01:59;5.20;99.90
71754;DHT22;59593;51.716;7.016;2024-03-06T04:04:25;5.20;99.90
71754;DHT22;59593;51.716;7.016;2024-03-06T04:06:50;5.10;99.90
71754;DHT22;59593;51.716;7.016;2024-03-06T04:09:16;5.00;99.90
71754;DHT22;59593;51.716;7.016;2024-03-06T04:11:42;5.00;99.90
71754;DHT22;59593;51.716;7.016;2024-03-06T04:14:08;5.00;99.90
71754;DHT22;59593;51.716;7.016;2024-03-06T04:16:34;4.90;99.90
71754;DHT22;59593;51.716;7.016;2024-03-06T04:19:00;4.80;99.90
71754;DHT22;59593;51.716;7.016;2024-03-06T04:21:26;4.80;99.90
71754;DHT22;59593;51.716;7.016;2024-03-06T04:23:52;4.80;99.90
71754;DHT22;59593;51.716;7.016;2024-03-06T04:26:17;4.70;99.90
71754;DHT22;59593;51.716;7.016;2024-03-06T04:28:43;4.60;99.90
71754;DHT22;59593;51.716;7.016;2024-03-06T04:31:10;4.60;99.90
71754;DHT22;59593;51.716;7.016;2024-03-06T04:33:36;4.70;99.90
71754;DHT22;59593;51.716;7.016;2024-03-06T04:36:03;4.60;99.90
71754;DHT22;59593;51.716;7.016;2024-03-06T04:38:29;4.60;99.90
71754;DHT22;59593;51.716;7.016;2024-03-06T04:40:54;4.50;99.90
71754;DHT22;59593;51.716;7.016;2024-03-06T04:43:20;4.60;99.90
71754;DHT22;59593;51.716;7.016;2024-03-06T04:45:46;4.60;99.90
71754;DHT22;59593;51.716;7.016;2024-03-06T04:48:11;4.40;99.90
71754;DHT22;59593;51.716;7.016;2024-03-06T04:50:37;4.50;99.90
71754;DHT22;59593;51.716;7.016;2024-03-06T04:53:03;4.40;99.90
71754;DHT22;59593;51.716;7.016;2024-03-06T04:55:28;4.40;99.90
71754;DHT22;59593;51.716;7.016;2024-03-06T04:57:56;4.30;99.90
71754;DHT22;59593;51.716;7.016;2024-03-06T05:00:22;4.30;99.90
71754;DHT22;59593;51.716;7.016;2024-03-06T05:02:47;4.30;99.90
71754;DHT22;59593;51.716;7.016;2024-03-06T05:05:14;4.30;99.90
71754;DHT22;59593;51.716;7.016;2024-03-06T05:07:40;4.20;99.90
71754;DHT22;59593;51.716;7.016;2024-03-06T05:10:06;4.30;99.90
71754;DHT22;59593;51.716;7.016;2024-03-06T05:12:33;4.20;99.90
71754;DHT22;59593;51.716;7.016;2024-03-06T05:14:59;4.20;99.90
71754;DHT22;59593;51.716;7.016;2024-03-06T05:17:25;4.10;99.90
71754;DHT22;59593;51.716;7.016;2024-03-06T05:19:51;4.10;99.90
71754;DHT22;59593;51.716;7.016;2024-03-06T05:22:16;4.10;99.90
71754;DHT22;59593;51.716;7.016;2024-03-06T05:24:43;4.10;99.90
71754;DHT22;59593;51.716;7.016;2024-03-06T05:27:09;4.10;99.90
71754;DHT22;59593;51.716;7.016;2024-03-06T05:29:36;4.10;99.90
71754;DHT22;59593;51.716;7.016;2024-03-06T05:32:02;4.10;99.90
71754;DHT22;59593;51.716;7.016;2024-03-06T05:34:29;4.00;99.90
71754;DHT22;59593;51.716;7.016;2024-03-06T05:36:55;4.10;99.90
71754;DHT22;59593;51.716;7.016;2024-03-06T05:39:20;4.10;99.90
71754;DHT22;59593;51.716;7.016;2024-03-06T05:41:46;4.10;99.90
71754;DHT22;59593;51.716;7.016;2024-03-06T05:44:11;4.00;99.90
71754;DHT22;59593;51.716;7.016;2024-03-06T05:46:37;4.00;99.90
71754;DHT22;59593;51.716;7.016;2024-03-06T05:49:03;4.10;99.90
71754;DHT22;59593;51.716;7.016;2024-03-06T05:51:29;4.10;99.90
71754;DHT22;59593;51.716;7.016;2024-03-06T05:53:56;4.10;99.90
71754;DHT22;59593;51.716;7.016;2024-03-06T05:56:21;4.10;99.90
71754;DHT22;59593;51.716;7.016;2024-03-06T05:58:47;3.90;99.90
71754;DHT22;59593;51.716;7.016;2024-03-06T06:01:16;4.00;99.90
71754;DHT22;59593;51.716;7.016;2024-03-06T06:03:48;4.00;99.90
71754;DHT22;59593;51.716;7.016;2024-03-06T06:06:18;4.00;99.90
71754;DHT22;59593;51.716;7.016;2024-03-06T06:08:46;4.00;99.90
71754;DHT22;59593;51.716;7.016;2024-03-06T06:11:12;3.90;99.90
71754;DHT22;59593;51.716;7.016;2024-03-06T06:13:38;3.90;99.90
71754;DHT22;59593;51.716;7.016;2024-03-06T06:16:07;3.80;99.90
71754;DHT22;59593;51.716;7.016;2024-03-06T06:18:32;3.90;99.90
71754;DHT22;59593;51.716;7.016;2024-03-06T06:20:59;3.90;99.90
71754;DHT22;59593;51.716;7.016;2024-03-06T06:23:24;4.00;99.90
71754;DHT22;59593;51.716;7.016;2024-03-06T06:25:50;3.90;99.90
71754;DHT22;59593;51.716;7.016;2024-03-06T06:28:16;4.00;99.90
71754;DHT22;59593;51.716;7.016;2024-03-06T06:30:41;4.10;99.90
71754;DHT22;59593;51.716;7.016;2024-03-06T06:33:07;4.10;99.90
71754;DHT22;59593;51.716;7.016;2024-03-06T06:35:34;4.10;99.90
71754;DHT22;59593;51.716;7.016;2024-03-06T06:38:03;4.20;99.90
71754;DHT22;59593;51.716;7.016;2024-03-06T06:40:30;4.30;99.90
71754;DHT22;59593;51.716;7.016;2024-03-06T06:42:56;4.40;99.90
71754;DHT22;59593;51.716;7.016;2024-03-06T06:45:22;4.40;99.90
71754;DHT22;59593;51.716;7.016;2024-03-06T06:47:49;4.40;99.90
71754;DHT22;59593;51.716;7.016;2024-03-06T06:50:15;4.40;99.90
71754;DHT22;59593;51.716;7.016;2024-03-06T06:52:41;4.40;99.90
71754;DHT22;59593;51.716;7.016;2024-03-06T06:55:07;4.50;99.90
71754;DHT22;59593;51.716;7.016;2024-03-06T06:57:37;4.60;99.90
71754;DHT22;59593;51.716;7.016;2024-03-06T07:00:03;4.70;99.90
71754;DHT22;59593;51.716;7.016;2024-03-06T07:02:37;4.80;99.90
71754;DHT22;59593;51.716;7.016;2024-03-06T07:05:04;4.90;99.90
71754;DHT22;59593;51.716;7.016;2024-03-06T07:07:30;4.90;99.90
71754;DHT22;59593;51.716;7.016;2024-03-06T07:09:55;4.90;99.90
71754;DHT22;59593;51.716;7.016;2024-03-06T07:12:21;4.80;99.90
71754;DHT22;59593;51.716;7.016;2024-03-06T07:14:47;4.90;99.90
71754;DHT22;59593;51.716;7.016;2024-03-06T07:17:13;4.90;99.90
71754;DHT22;59593;51.716;7.016;2024-03-06T07:19:38;4.90;99.90
71754;DHT22;59593;51.716;7.016;2024-03-06T07:22:05;5.00;99.90
71754;DHT22;59593;51.716;7.016;2024-03-06T07:24:30;5.00;99.90
71754;DHT22;59593;51.716;7.016;2024-03-06T07:26:56;5.00;99.90
71754;DHT22;59593;51.716;7.016;2024-03-06T07:29:21;5.00;99.90
71754;DHT22;59593;51.716;7.016;2024-03-06T07:31:47;5.10;99.90
71754;DHT22;59593;51.716;7.016;2024-03-06T07:34:13;5.20;99.90
71754;DHT22;59593;51.716;7.016;2024-03-06T07:36:40;5.30;99.90
71754;DHT22;59593;51.716;7.016;2024-03-06T07:39:05;5.30;99.90
71754;DHT22;59593;51.716;7.016;2024-03-06T07:41:31;5.40;99.90
71754;DHT22;59593;51.716;7.016;2024-03-06T07:44:00;5.40;99.90
71754;DHT22;59593;51.716;7.016;2024-03-06T07:46:26;5.50;99.90
71754;DHT22;59593;51.716;7.016;2024-03-06T07:48:52;5.50;99.90
71754;DHT22;59593;51.716;7.016;2024-03-06T07:51:17;5.50;99.90
71754;DHT22;59593;51.716;7.016;2024-03-06T07:53:43;5.50;99.90
71754;DHT22;59593;51.716;7.016;2024-03-06T07:56:12;5.60;99.90
71754;DHT22;59593;51.716;7.016;2024-03-06T07:58:38;5.70;99.90
71754;DHT22;59593;51.716;7.016;2024-03-06T08:01:04;5.70;99.90
71754;DHT22;59593;51.716;7.016;2024-03-06T08:03:29;5.80;99.90
71754;DHT22;59593;51.716;7.016;2024-03-06T08:05:55;5.90;99.90
71754;DHT22;59593;51.716;7.016;2024-03-06T08:08:20;5.90;99.90
71754;DHT22;59593;51.716;7.016;2024-03-06T08:10:46;6.00;99.90
71754;DHT22;59593;51.716;7.016;2024-03-06T08:13:12;6.10;99.90
71754;DHT22;59593;51.716;7.016;2024-03-06T08:15:37;6.10;99.90
71754;DHT22;59593;51.716;7.016;2024-03-06T08:18:03;6.20;99.90
71754;DHT22;59593;51.716;7.016;2024-03-06T08:20:29;6.20;99.90
71754;DHT22;59593;51.716;7.016;2024-03-06T08:22:56;6.30;99.90
71754;DHT22;59593;51.716;7.016;2024-03-06T08:25:21;6.40;99.90
71754;DHT22;59593;51.716;7.016;2024-03-06T08:27:47;6.60;99.90
71754;DHT22;59593;51.716;7.016;2024-03-06T08:30:13;6.60;99.90
71754;DHT22;59593;51.716;7.016;2024-03-06T08:32:38;6.70;99.90
71754;DHT22;59593;51.716;7.016;2024-03-06T08:35:05;6.80;99.90
71754;DHT22;59593;51.716;7.016;2024-03-06T08:37:32;6.80;99.90
71754;DHT22;59593;51.716;7.016;2024-03-06T08:39:59;6.80;99.90
71754;DHT22;59593;51.716;7.016;2024-03-06T08:42:25;6.90;99.90
71754;DHT22;59593;51.716;7.016;2024-03-06T08:44:50;7.00;99.90
71754;DHT22;59593;51.716;7.016;2024-03-06T08:47:16;7.00;99.90
71754;DHT22;59593;51.716;7.016;2024-03-06T08:49:42;7.20;99.90
71754;DHT22;59593;51.716;7.016;2024-03-06T08:52:08;7.40;99.90
71754;DHT22;59593;51.716;7.016;2024-03-06T08:54:35;7.40;99.90
71754;DHT22;59593;51.716;7.016;2024-03-06T08:57:01;7.50;99.90
71754;DHT22;59593;51.716;7.016;2024-03-06T08:59:28;7.60;99.90
71754;DHT22;59593;51.716;7.016;2024-03-06T09:01:54;7.70;99.90
71754;DHT22;59593;51.716;7.016;2024-03-06T09:04:21;7.80;99.90
71754;DHT22;59593;51.716;7.016;2024-03-06T09:06:47;7.80;99.90
71754;DHT22;59593;51.716;7.016;2024-03-06T09:09:14;7.80;99.90
71754;DHT22;59593;51.716;7.016;2024-03-06T09:11:43;8.00;99.90
71754;DHT22;59593;51.716;7.016;2024-03-06T09:14:09;8.10;99.90
71754;DHT22;59593;51.716;7.016;2024-03-06T09:16:35;8.30;99.90
71754;DHT22;59593;51.716;7.016;2024-03-06T09:19:01;8.50;99.90
71754;DHT22;59593;51.716;7.016;2024-03-06T09:21:27;8.50;99.90
71754;DHT22;59593;51.716;7.016;2024-03-06T09:23:53;8.50;99.90
71754;DHT22;59593;51.716;7.016;2024-03-06T09:26:19;8.50;99.90
71754;DHT22;59593;51.716;7.016;2024-03-06T09:28:45;8.50;99.90
71754;DHT22;59593;51.716;7.016;2024-03-06T09:31:11;8.50;99.90
71754;DHT22;59593;51.716;7.016;2024-03-06T09:33:39;8.40;99.90
71754;DHT22;59593;51.716;7.016;2024-03-06T09:36:05;8.60;99.90
71754;DHT22;59593;51.716;7.016;2024-03-06T09:38:31;8.70;99.90
71754;DHT22;59593;51.716;7.016;2024-03-06T09:40:56;8.90;99.90
71754;DHT22;59593;51.716;7.016;2024-03-06T09:43:22;9.10;99.90
71754;DHT22;59593;51.716;7.016;2024-03-06T09:45:50;9.10;99.90
71754;DHT22;59593;51.716;7.016;2024-03-06T09:48:20;9.10;99.90
71754;DHT22;59593;51.716;7.016;2024-03-06T09:50:46;9.30;99.90
71754;DHT22;59593;51.716;7.016;2024-03-06T09:53:16;9.40;99.90
71754;DHT22;59593;51.716;7.016;2024-03-06T09:55:42;9.50;99.90
71754;DHT22;59593;51.716;7.016;2024-03-06T09:58:08;9.60;99.90
71754;DHT22;59593;51.716;7.016;2024-03-06T10:00:36;9.70;99.90
71754;DHT22;59593;51.716;7.016;2024-03-06T10:03:03;9.80;99.90
71754;DHT22;59593;51.716;7.016;2024-03-06T10:05:31;9.80;99.90
71754;DHT22;59593;51.716;7.016;2024-03-06T10:08:00;9.80;99.90
71754;DHT22;59593;51.716;7.016;2024-03-06T10:10:26;9.90;99.90
71754;DHT22;59593;51.716;7.016;2024-03-06T10:12:52;10.10;99.90
71754;DHT22;59593;51.716;7.016;2024-03-06T10:15:18;10.30;99.90
71754;DHT22;59593;51.716;7.016;2024-03-06T10:17:44;10.30;99.90
71754;DHT22;59593;51.716;7.016;2024-03-06T10:20:23;10.10;99.90
71754;DHT22;59593;51.716;7.016;2024-03-06T10:22:50;10.20;99.90
71754;DHT22;59593;51.716;7.016;2024-03-06T10:25:20;10.20;99.90
71754;DHT22;59593;51.716;7.016;2024-03-06T10:28:05;10.30;99.90
71754;DHT22;59593;51.716;7.016;2024-03-06T10:30:33;10.40;99.90
71754;DHT22;59593;51.716;7.016;2024-03-06T10:33:01;10.40;99.90
71754;DHT22;59593;51.716;7.016;2024-03-06T10:35:28;10.50;99.90
71754;DHT22;59593;51.716;7.016;2024-03-06T10:37:54;10.70;99.90
71754;DHT22;59593;51.716;7.016;2024-03-06T10:40:20;10.80;99.90
71754;DHT22;59593;51.716;7.016;2024-03-06T10:42:46;11.10;99.90
71754;DHT22;59593;51.716;7.016;2024-03-06T10:45:14;11.00;99.90
71754;DHT22;59593;51.716;7.016;2024-03-06T10:47:46;10.70;99.90
71754;DHT22;59593;51.716;7.016;2024-03-06T10:50:15;11.50;99.90
71754;DHT22;59593;51.716;7.016;2024-03-06T10:52:41;12.00;99.90
71754;DHT22;59593;51.716;7.016;2024-03-06T10:55:08;12.40;99.90
71754;DHT22;59593;51.716;7.016;2024-03-06T10:57:36;12.70;99.90
71754;DHT22;59593;51.716;7.016;2024-03-06T11:00:03;12.60;99.90
71754;DHT22;59593;51.716;7.016;2024-03-06T11:02:29;12.70;99.90
71754;DHT22;59593;51.716;7.016;2024-03-06T11:04:55;13.40;99.90
71754;DHT22;59593;51.716;7.016;2024-03-06T11:07:21;13.70;99.90
71754;DHT22;59593;51.716;7.016;2024-03-06T11:09:46;13.40;99.90
71754;DHT22;59593;51.716;7.016;2024-03-06T11:12:35;13.20;99.90
71754;DHT22;59593;51.716;7.016;2024-03-06T11:15:17;13.20;99.90
71754;DHT22;59593;51.716;7.016;2024-03-06T11:17:43;13.80;99.90
71754;DHT22;59593;51.716;7.016;2024-03-06T11:20:14;14.40;99.90
71754;DHT22;59593;51.716;7.016;2024-03-06T11:28:16;15.30;99.90
71754;DHT22;59593;51.716;7.016;2024-03-06T11:30:47;16.00;99.90
71754;DHT22;59593;51.716;7.016;2024-03-06T11:33:16;15.80;99.90
71754;DHT22;59593;51.716;7.016;2024-03-06T11:35:42;15.60;99.90
71754;DHT22;59593;51.716;7.016;2024-03-06T11:38:22;14.80;99.90
71754;DHT22;59593;51.716;7.016;2024-03-06T11:40:52;14.60;99.90
71754;DHT22;59593;51.716;7.016;2024-03-06T11:43:27;14.90;99.90
71754;DHT22;59593;51.716;7.016;2024-03-06T11:45:53;15.30;99.90
71754;DHT22;59593;51.716;7.016;2024-03-06T11:48:19;15.10;99.90
71754;DHT22;59593;51.716;7.016;2024-03-06T11:50:47;14.70;99.90
71754;DHT22;59593;51.716;7.016;2024-03-06T11:53:16;14.80;99.90
71754;DHT22;59593;51.716;7.016;2024-03-06T11:55:42;14.60;99.90
71754;DHT22;59593;51.716;7.016;2024-03-06T11:58:08;14.20;99.90
71754;DHT22;59593;51.716;7.016;2024-03-06T12:00:37;14.00;99.90
71754;DHT22;59593;51.716;7.016;2024-03-06T12:03:03;13.70;99.90
71754;DHT22;59593;51.716;7.016;2024-03-06T12:05:31;13.10;99.90
71754;DHT22;59593;51.716;7.016;2024-03-06T12:07:56;13.30;99.90
71754;DHT22;59593;51.716;7.016;2024-03-06T12:10:22;13.70;99.90
71754;DHT22;59593;51.716;7.016;2024-03-06T12:12:48;14.20;99.90
71754;DHT22;59593;51.716;7.016;2024-03-06T12:15:15;15.10;99.90
71754;DHT22;59593;51.716;7.016;2024-03-06T12:17:44;14.80;99.90
71754;DHT22;59593;51.716;7.016;2024-03-06T12:20:14;14.40;99.90
71754;DHT22;59593;51.716;7.016;2024-03-06T12:25:26;13.60;99.90
71754;DHT22;59593;51.716;7.016;2024-03-06T12:27:54;14.70;99.90
71754;DHT22;59593;51.716;7.016;2024-03-06T12:30:23;14.40;99.90
71754;DHT22;59593;51.716;7.016;2024-03-06T12:33:02;13.50;99.90
71754;DHT22;59593;51.716;7.016;2024-03-06T12:35:31;13.40;99.90
71754;DHT22;59593;51.716;7.016;2024-03-06T12:37:57;13.10;99.90
71754;DHT22;59593;51.716;7.016;2024-03-06T12:40:23;12.70;99.90
71754;DHT22;59593;51.716;7.016;2024-03-06T12:42:49;12.70;99.90
71754;DHT22;59593;51.716;7.016;2024-03-06T12:45:15;13.00;99.90
71754;DHT22;59593;51.716;7.016;2024-03-06T12:47:47;13.40;99.90
71754;DHT22;59593;51.716;7.016;2024-03-06T12:50:14;14.70;99.90
71754;DHT22;59593;51.716;7.016;2024-03-06T12:52:40;15.70;99.90
71754;DHT22;59593;51.716;7.016;2024-03-06T12:55:06;15.70;99.90
71754;DHT22;59593;51.716;7.016;2024-03-06T12:57:33;16.50;99.90
71754;DHT22;59593;51.716;7.016;2024-03-06T12:59:59;16.70;99.90
71754;DHT22;59593;51.716;7.016;2024-03-06T13:02:25;17.40;99.90
71754;DHT22;59593;51.716;7.016;2024-03-06T13:04:51;17.10;99.90
71754;DHT22;59593;51.716;7.016;2024-03-06T13:07:16;18.30;99.90
71754;DHT22;59593;51.716;7.016;2024-03-06T13:09:42;18.60;99.90
71754;DHT22;59593;51.716;7.016;2024-03-06T13:12:08;17.80;99.90
71754;DHT22;59593;51.716;7.016;2024-03-06T13:14:34;17.80;99.90
71754;DHT22;59593;51.716;7.016;2024-03-06T13:17:00;16.50;99.90
71754;DHT22;59593;51.716;7.016;2024-03-06T13:19:26;16.60;99.90
71754;DHT22;59593;51.716;7.016;2024-03-06T13:21:51;17.10;99.90
71754;DHT22;59593;51.716;7.016;2024-03-06T13:24:18;18.10;99.90
71754;DHT22;59593;51.716;7.016;2024-03-06T13:26:45;18.10;99.90
71754;DHT22;59593;51.716;7.016;2024-03-06T13:29:11;17.10;99.90
71754;DHT22;59593;51.716;7.016;2024-03-06T13:31:36;16.90;99.90
71754;DHT22;59593;51.716;7.016;2024-03-06T13:34:03;17.10;99.90
71754;DHT22;59593;51.716;7.016;2024-03-06T13:36:29;17.30;99.90
71754;DHT22;59593;51.716;7.016;2024-03-06T13:38:55;16.10;99.90
71754;DHT22;59593;51.716;7.016;2024-03-06T13:41:21;17.10;99.90
71754;DHT22;59593;51.716;7.016;2024-03-06T13:43:46;17.40;99.90
71754;DHT22;59593;51.716;7.016;2024-03-06T13:46:12;16.80;99.90
71754;DHT22;59593;51.716;7.016;2024-03-06T13:48:38;14.20;99.90
71754;DHT22;59593;51.716;7.016;2024-03-06T13:51:04;13.40;99.90
71754;DHT22;59593;51.716;7.016;2024-03-06T13:53:30;12.60;99.90
71754;DHT22;59593;51.716;7.016;2024-03-06T13:55:56;12.20;99.90
71754;DHT22;59593;51.716;7.016;2024-03-06T13:58:22;11.70;99.90
71754;DHT22;59593;51.716;7.016;2024-03-06T14:00:48;11.70;99.90
71754;DHT22;59593;51.716;7.016;2024-03-06T14:03:13;12.60;99.90
71754;DHT22;59593;51.716;7.016;2024-03-06T14:05:39;12.50;99.90
71754;DHT22;59593;51.716;7.016;2024-03-06T14:08:05;12.40;99.90
71754;DHT22;59593;51.716;7.016;2024-03-06T14:10:31;12.60;99.90
71754;DHT22;59593;51.716;7.016;2024-03-06T14:13:02;12.50;99.90
71754;DHT22;59593;51.716;7.016;2024-03-06T14:15:27;13.10;99.90
71754;DHT22;59593;51.716;7.016;2024-03-06T14:17:53;14.20;99.90
71754;DHT22;59593;51.716;7.016;2024-03-06T14:20:20;13.90;99.90
71754;DHT22;59593;51.716;7.016;2024-03-06T14:22:46;13.70;99.90
71754;DHT22;59593;51.716;7.016;2024-03-06T14:25:13;12.40;99.90
71754;DHT22;59593;51.716;7.016;2024-03-06T14:27:38;12.10;99.90
71754;DHT22;59593;51.716;7.016;2024-03-06T14:30:05;11.90;99.90
71754;DHT22;59593;51.716;7.016;2024-03-06T14:32:32;12.10;99.90
71754;DHT22;59593;51.716;7.016;2024-03-06T14:34:58;12.20;99.90
71754;DHT22;59593;51.716;7.016;2024-03-06T14:37:24;12.00;99.90
71754;DHT22;59593;51.716;7.016;2024-03-06T14:39:49;12.10;99.90
71754;DHT22;59593;51.716;7.016;2024-03-06T14:42:16;12.30;99.90
71754;DHT22;59593;51.716;7.016;2024-03-06T14:44:42;12.50;99.90
71754;DHT22;59593;51.716;7.016;2024-03-06T14:47:11;12.90;99.90
71754;DHT22;59593;51.716;7.016;2024-03-06T14:49:37;12.90;99.90
71754;DHT22;59593;51.716;7.016;2024-03-06T14:52:03;13.10;99.90
71754;DHT22;59593;51.716;7.016;2024-03-06T14:54:29;14.30;99.90
71754;DHT22;59593;51.716;7.016;2024-03-06T14:56:54;15.70;99.90
71754;DHT22;59593;51.716;7.016;2024-03-06T14:59:21;16.50;99.90
71754;DHT22;59593;51.716;7.016;2024-03-06T15:01:47;16.90;99.90
71754;DHT22;59593;51.716;7.016;2024-03-06T15:04:13;16.40;99.90
71754;DHT22;59593;51.716;7.016;2024-03-06T15:06:39;16.60;99.90
71754;DHT22;59593;51.716;7.016;2024-03-06T15:09:05;17.10;99.90
71754;DHT22;59593;51.716;7.016;2024-03-06T15:11:31;17.00;99.90
71754;DHT22;59593;51.716;7.016;2024-03-06T15:14:01;16.50;99.90
71754;DHT22;59593;51.716;7.016;2024-03-06T15:16:26;16.80;99.90
71754;DHT22;59593;51.716;7.016;2024-03-06T15:18:52;16.40;99.90
71754;DHT22;59593;51.716;7.016;2024-03-06T15:21:19;15.40;99.90
71754;DHT22;59593;51.716;7.016;2024-03-06T15:23:44;14.40;99.90
71754;DHT22;59593;51.716;7.016;2024-03-06T15:26:10;13.90;99.90
71754;DHT22;59593;51.716;7.016;2024-03-06T15:28:36;13.10;99.90
71754;DHT22;59593;51.716;7.016;2024-03-06T15:31:02;12.90;99.90
71754;DHT22;59593;51.716;7.016;2024-03-06T15:33:32;12.60;99.90
71754;DHT22;59593;51.716;7.016;2024-03-06T15:35:58;12.30;99.90
71754;DHT22;59593;51.716;7.016;2024-03-06T15:38:25;12.20;99.90
71754;DHT22;59593;51.716;7.016;2024-03-06T15:40:51;12.10;99.90
71754;DHT22;59593;51.716;7.016;2024-03-06T15:43:17;11.90;99.90